sensor_id;sensor_type;location;lat;lon;timestamp;P1;durP1;ratioP1;P2;durP2;ratioP2
47529;SDS011;33272;51.922;7.730;2023-05-16T00:02:01;7.73;;;6.23;;
47529;SDS011;33272;51.922;7.730;2023-05-16T00:04:29;8.17;;;7.10;;
47529;SDS011;33272;51.922;7.730;2023-05-16T00:06:57;8.27;;;6.20;;
47529;SDS011;33272;51.922;7.730;2023-05-16T00:09:24;7.50;;;5.53;;
47529;SDS011;33272;51.922;7.730;2023-05-16T00:11:51;6.83;;;4.53;;
47529;SDS011;33272;51.922;7.730;2023-05-16T00:14:18;6.30;;;4.83;;
47529;SDS011;33272;51.922;7.730;2023-05-16T00:16:45;5.17;;;4.63;;
47529;SDS011;33272;51.922;7.730;2023-05-16T00:19:14;4.80;;;4.40;;
47529;SDS011;33272;51.922;7.730;2023-05-16T00:21:41;4.67;;;4.20;;
47529;SDS011;33272;51.922;7.730;2023-05-16T00:24:08;5.63;;;3.93;;
47529;SDS011;33272;51.922;7.730;2023-05-16T00:26:35;4.87;;;3.40;;
47529;SDS011;33272;51.922;7.730;2023-05-16T00:29:02;5.67;;;3.63;;
47529;SDS011;33272;51.922;7.730;2023-05-16T00:31:30;4.73;;;3.70;;
47529;SDS011;33272;51.922;7.730;2023-05-16T00:33:57;4.33;;;3.60;;
47529;SDS011;33272;51.922;7.730;2023-05-16T00:36:32;4.00;;;3.60;;
47529;SDS011;33272;51.922;7.730;2023-05-16T00:38:59;5.33;;;4.17;;
47529;SDS011;33272;51.922;7.730;2023-05-16T00:41:26;5.10;;;4.10;;
47529;SDS011;33272;51.922;7.730;2023-05-16T00:43:53;5.07;;;4.20;;
47529;SDS011;33272;51.922;7.730;2023-05-16T00:46:20;5.23;;;4.03;;
47529;SDS011;33272;51.922;7.730;2023-05-16T00:48:47;4.20;;;3.80;;
47529;SDS011;33272;51.922;7.730;2023-05-16T00:51:15;3.97;;;3.67;;
47529;SDS011;33272;51.922;7.730;2023-05-16T00:53:44;4.37;;;3.97;;
47529;SDS011;33272;51.922;7.730;2023-05-16T00:56:11;3.97;;;3.60;;
47529;SDS011;33272;51.922;7.730;2023-05-16T00:58:38;4.07;;;3.73;;
47529;SDS011;33272;51.922;7.730;2023-05-16T01:01:05;4.50;;;3.50;;
47529;SDS011;33272;51.922;7.730;2023-05-16T01:03:32;3.97;;;3.27;;
47529;SDS011;33272;51.922;7.730;2023-05-16T01:06:00;4.17;;;3.50;;
47529;SDS011;33272;51.922;7.730;2023-05-16T01:08:27;3.43;;;3.13;;
47529;SDS011;33272;51.922;7.730;2023-05-16T01:10:59;2.70;;;1.93;;
47529;SDS011;33272;51.922;7.730;2023-05-16T01:13:35;2.57;;;1.70;;
47529;SDS011;33272;51.922;7.730;2023-05-16T01:16:15;2.80;;;1.60;;
47529;SDS011;33272;51.922;7.730;2023-05-16T01:18:54;1.70;;;1.60;;
47529;SDS011;33272;51.922;7.730;2023-05-16T01:21:35;3.10;;;1.67;;
47529;SDS011;33272;51.922;7.730;2023-05-16T01:24:13;2.77;;;1.60;;
47529;SDS011;33272;51.922;7.730;2023-05-16T01:26:53;3.20;;;1.90;;
47529;SDS011;33272;51.922;7.730;2023-05-16T01:29:24;3.77;;;2.30;;
47529;SDS011;33272;51.922;7.730;2023-05-16T01:31:51;2.53;;;2.00;;
47529;SDS011;33272;51.922;7.730;2023-05-16T01:34:18;5.03;;;1.90;;
47529;SDS011;33272;51.922;7.730;2023-05-16T01:36:47;4.57;;;2.40;;
47529;SDS011;33272;51.922;7.730;2023-05-16T01:39:24;4.43;;;2.50;;
47529;SDS011;33272;51.922;7.730;2023-05-16T01:42:02;7.07;;;2.70;;
47529;SDS011;33272;51.922;7.730;2023-05-16T01:44:34;4.87;;;2.70;;
47529;SDS011;33272;51.922;7.730;2023-05-16T01:47:06;4.00;;;2.43;;
47529;SDS011;33272;51.922;7.730;2023-05-16T01:49:42;5.60;;;2.67;;
47529;SDS011;33272;51.922;7.730;2023-05-16T01:52:18;6.20;;;2.73;;
47529;SDS011;33272;51.922;7.730;2023-05-16T01:54:50;6.60;;;3.10;;
47529;SDS011;33272;51.922;7.730;2023-05-16T01:57:23;7.10;;;2.77;;
47529;SDS011;33272;51.922;7.730;2023-05-16T01:59:53;6.20;;;2.73;;
47529;SDS011;33272;51.922;7.730;2023-05-16T02:02:21;5.40;;;3.07;;
47529;SDS011;33272;51.922;7.730;2023-05-16T02:04:49;8.67;;;3.13;;
47529;SDS011;33272;51.922;7.730;2023-05-16T02:07:16;9.60;;;3.10;;
47529;SDS011;33272;51.922;7.730;2023-05-16T02:09:43;8.10;;;3.33;;
47529;SDS011;33272;51.922;7.730;2023-05-16T02:12:10;6.70;;;2.63;;
47529;SDS011;33272;51.922;7.730;2023-05-16T02:14:38;11.77;;;3.40;;
47529;SDS011;33272;51.922;7.730;2023-05-16T02:17:06;6.67;;;3.30;;
47529;SDS011;33272;51.922;7.730;2023-05-16T02:19:33;10.20;;;3.27;;
47529;SDS011;33272;51.922;7.730;2023-05-16T02:22:00;8.10;;;3.57;;
47529;SDS011;33272;51.922;7.730;2023-05-16T02:24:27;5.67;;;3.10;;
47529;SDS011;33272;51.922;7.730;2023-05-16T02:26:54;7.57;;;3.60;;
47529;SDS011;33272;51.922;7.730;2023-05-16T02:29:21;9.30;;;3.10;;
47529;SDS011;33272;51.922;7.730;2023-05-16T02:31:49;7.63;;;3.50;;
47529;SDS011;33272;51.922;7.730;2023-05-16T02:34:16;10.13;;;3.47;;
47529;SDS011;33272;51.922;7.730;2023-05-16T02:36:43;9.23;;;4.40;;
47529;SDS011;33272;51.922;7.730;2023-05-16T02:39:10;7.63;;;3.47;;
47529;SDS011;33272;51.922;7.730;2023-05-16T02:41:37;9.97;;;3.70;;
47529;SDS011;33272;51.922;7.730;2023-05-16T02:44:04;6.70;;;3.00;;
47529;SDS011;33272;51.922;7.730;2023-05-16T02:46:32;7.93;;;3.40;;
47529;SDS011;33272;51.922;7.730;2023-05-16T02:49:01;11.33;;;3.60;;
47529;SDS011;33272;51.922;7.730;2023-05-16T02:51:28;10.87;;;3.90;;
47529;SDS011;33272;51.922;7.730;2023-05-16T02:53:55;10.03;;;3.60;;
47529;SDS011;33272;51.922;7.730;2023-05-16T02:56:23;8.90;;;3.50;;
47529;SDS011;33272;51.922;7.730;2023-05-16T02:58:52;8.43;;;3.20;;
47529;SDS011;33272;51.922;7.730;2023-05-16T03:01:20;6.10;;;3.03;;
47529;SDS011;33272;51.922;7.730;2023-05-16T03:03:47;12.23;;;3.73;;
47529;SDS011;33272;51.922;7.730;2023-05-16T03:06:15;13.10;;;3.80;;
47529;SDS011;33272;51.922;7.730;2023-05-16T03:08:42;10.00;;;3.17;;
47529;SDS011;33272;51.922;7.730;2023-05-16T03:11:09;12.10;;;3.40;;
47529;SDS011;33272;51.922;7.730;2023-05-16T03:13:36;12.23;;;3.27;;
47529;SDS011;33272;51.922;7.730;2023-05-16T03:16:04;12.17;;;3.83;;
47529;SDS011;33272;51.922;7.730;2023-05-16T03:18:31;10.37;;;3.00;;
47529;SDS011;33272;51.922;7.730;2023-05-16T03:20:58;10.63;;;2.87;;
47529;SDS011;33272;51.922;7.730;2023-05-16T03:23:28;11.23;;;3.93;;
47529;SDS011;33272;51.922;7.730;2023-05-16T03:25:55;10.77;;;3.57;;
47529;SDS011;33272;51.922;7.730;2023-05-16T03:28:22;9.13;;;2.93;;
47529;SDS011;33272;51.922;7.730;2023-05-16T03:30:49;11.77;;;3.60;;
47529;SDS011;33272;51.922;7.730;2023-05-16T03:33:16;11.00;;;3.37;;
47529;SDS011;33272;51.922;7.730;2023-05-16T03:35:43;10.43;;;3.03;;
47529;SDS011;33272;51.922;7.730;2023-05-16T03:38:11;8.33;;;3.30;;
47529;SDS011;33272;51.922;7.730;2023-05-16T03:40:39;10.10;;;2.90;;
47529;SDS011;33272;51.922;7.730;2023-05-16T03:43:07;13.07;;;3.40;;
47529;SDS011;33272;51.922;7.730;2023-05-16T03:45:34;12.47;;;3.73;;
47529;SDS011;33272;51.922;7.730;2023-05-16T03:48:01;10.97;;;3.40;;
47529;SDS011;33272;51.922;7.730;2023-05-16T03:50:28;7.70;;;3.37;;
47529;SDS011;33272;51.922;7.730;2023-05-16T03:52:55;11.07;;;3.03;;
47529;SDS011;33272;51.922;7.730;2023-05-16T03:55:22;12.30;;;3.70;;
47529;SDS011;33272;51.922;7.730;2023-05-16T03:57:51;12.83;;;3.60;;
47529;SDS011;33272;51.922;7.730;2023-05-16T04:00:18;13.17;;;3.43;;
47529;SDS011;33272;51.922;7.730;2023-05-16T04:02:45;10.43;;;3.50;;
47529;SDS011;33272;51.922;7.730;2023-05-16T04:05:12;12.67;;;3.87;;
47529;SDS011;33272;51.922;7.730;2023-05-16T04:07:39;14.70;;;3.23;;
47529;SDS011;33272;51.922;7.730;2023-05-16T04:10:06;8.57;;;2.80;;
47529;SDS011;33272;51.922;7.730;2023-05-16T04:12:35;11.73;;;3.60;;
47529;SDS011;33272;51.922;7.730;2023-05-16T04:15:04;8.50;;;3.20;;
47529;SDS011;33272;51.922;7.730;2023-05-16T04:17:32;8.70;;;3.13;;
47529;SDS011;33272;51.922;7.730;2023-05-16T04:19:59;12.77;;;3.17;;
47529;SDS011;33272;51.922;7.730;2023-05-16T04:22:26;11.57;;;3.90;;
47529;SDS011;33272;51.922;7.730;2023-05-16T04:24:53;17.47;;;4.10;;
47529;SDS011;33272;51.922;7.730;2023-05-16T04:27:20;14.17;;;4.47;;
47529;SDS011;33272;51.922;7.730;2023-05-16T04:29:47;13.80;;;3.83;;
47529;SDS011;33272;51.922;7.730;2023-05-16T04:32:16;17.80;;;5.00;;
47529;SDS011;33272;51.922;7.730;2023-05-16T04:34:43;14.50;;;5.20;;
47529;SDS011;33272;51.922;7.730;2023-05-16T04:37:12;13.77;;;5.93;;
47529;SDS011;33272;51.922;7.730;2023-05-16T04:39:39;8.73;;;3.07;;
47529;SDS011;33272;51.922;7.730;2023-05-16T04:42:06;11.43;;;3.63;;
47529;SDS011;33272;51.922;7.730;2023-05-16T04:44:33;14.70;;;7.57;;
47529;SDS011;33272;51.922;7.730;2023-05-16T04:47:01;11.47;;;3.13;;
47529;SDS011;33272;51.922;7.730;2023-05-16T04:49:29;12.57;;;3.20;;
47529;SDS011;33272;51.922;7.730;2023-05-16T04:51:56;9.23;;;2.83;;
47529;SDS011;33272;51.922;7.730;2023-05-16T04:54:23;13.43;;;2.70;;
47529;SDS011;33272;51.922;7.730;2023-05-16T04:56:51;9.20;;;2.97;;
47529;SDS011;33272;51.922;7.730;2023-05-16T04:59:17;8.27;;;3.23;;
47529;SDS011;33272;51.922;7.730;2023-05-16T05:01:45;9.97;;;2.90;;
47529;SDS011;33272;51.922;7.730;2023-05-16T05:04:12;7.23;;;3.07;;
47529;SDS011;33272;51.922;7.730;2023-05-16T05:06:40;13.10;;;4.03;;
47529;SDS011;33272;51.922;7.730;2023-05-16T05:09:07;12.97;;;3.43;;
47529;SDS011;33272;51.922;7.730;2023-05-16T05:11:35;9.73;;;3.43;;
47529;SDS011;33272;51.922;7.730;2023-05-16T05:14:02;12.97;;;2.90;;
47529;SDS011;33272;51.922;7.730;2023-05-16T05:16:29;8.17;;;3.10;;
47529;SDS011;33272;51.922;7.730;2023-05-16T05:18:57;9.43;;;2.80;;
47529;SDS011;33272;51.922;7.730;2023-05-16T05:21:24;10.27;;;3.30;;
47529;SDS011;33272;51.922;7.730;2023-05-16T05:23:52;8.37;;;2.77;;
47529;SDS011;33272;51.922;7.730;2023-05-16T05:26:19;9.60;;;3.27;;
47529;SDS011;33272;51.922;7.730;2023-05-16T05:28:47;11.07;;;3.30;;
47529;SDS011;33272;51.922;7.730;2023-05-16T05:31:14;11.17;;;2.90;;
47529;SDS011;33272;51.922;7.730;2023-05-16T05:33:41;9.47;;;3.10;;
47529;SDS011;33272;51.922;7.730;2023-05-16T05:36:08;7.67;;;2.90;;
47529;SDS011;33272;51.922;7.730;2023-05-16T05:38:35;10.40;;;2.73;;
47529;SDS011;33272;51.922;7.730;2023-05-16T05:41:03;11.30;;;3.97;;
47529;SDS011;33272;51.922;7.730;2023-05-16T05:43:31;9.70;;;2.83;;
47529;SDS011;33272;51.922;7.730;2023-05-16T05:45:59;8.27;;;2.50;;
47529;SDS011;33272;51.922;7.730;2023-05-16T05:48:26;10.20;;;2.80;;
47529;SDS011;33272;51.922;7.730;2023-05-16T05:50:54;6.83;;;2.63;;
47529;SDS011;33272;51.922;7.730;2023-05-16T05:53:21;11.57;;;3.07;;
47529;SDS011;33272;51.922;7.730;2023-05-16T05:55:48;6.30;;;2.80;;
47529;SDS011;33272;51.922;7.730;2023-05-16T05:58:16;11.73;;;2.83;;
47529;SDS011;33272;51.922;7.730;2023-05-16T06:00:43;10.77;;;3.17;;
47529;SDS011;33272;51.922;7.730;2023-05-16T06:03:11;8.13;;;3.03;;
47529;SDS011;33272;51.922;7.730;2023-05-16T06:05:38;8.50;;;2.87;;
47529;SDS011;33272;51.922;7.730;2023-05-16T06:08:05;7.77;;;2.43;;
47529;SDS011;33272;51.922;7.730;2023-05-16T06:10:32;7.10;;;2.33;;
47529;SDS011;33272;51.922;7.730;2023-05-16T06:12:59;8.57;;;2.60;;
47529;SDS011;33272;51.922;7.730;2023-05-16T06:15:28;6.23;;;2.67;;
47529;SDS011;33272;51.922;7.730;2023-05-16T06:17:54;7.77;;;2.37;;
47529;SDS011;33272;51.922;7.730;2023-05-16T06:20:22;8.47;;;2.80;;
47529;SDS011;33272;51.922;7.730;2023-05-16T06:22:49;12.43;;;3.53;;
47529;SDS011;33272;51.922;7.730;2023-05-16T06:25:16;9.97;;;3.30;;
47529;SDS011;33272;51.922;7.730;2023-05-16T06:27:43;8.00;;;2.30;;
47529;SDS011;33272;51.922;7.730;2023-05-16T06:30:10;8.33;;;2.10;;
47529;SDS011;33272;51.922;7.730;2023-05-16T06:32:39;10.77;;;3.10;;
47529;SDS011;33272;51.922;7.730;2023-05-16T06:35:08;8.53;;;2.80;;
47529;SDS011;33272;51.922;7.730;2023-05-16T06:37:35;8.00;;;2.20;;
47529;SDS011;33272;51.922;7.730;2023-05-16T06:40:02;12.70;;;2.97;;
47529;SDS011;33272;51.922;7.730;2023-05-16T06:42:31;6.83;;;2.47;;
47529;SDS011;33272;51.922;7.730;2023-05-16T06:44:58;9.77;;;3.17;;
47529;SDS011;33272;51.922;7.730;2023-05-16T06:47:25;10.57;;;2.50;;
47529;SDS011;33272;51.922;7.730;2023-05-16T06:49:53;9.57;;;2.37;;
47529;SDS011;33272;51.922;7.730;2023-05-16T06:52:20;10.67;;;2.70;;
47529;SDS011;33272;51.922;7.730;2023-05-16T06:54:47;5.50;;;2.77;;
47529;SDS011;33272;51.922;7.730;2023-05-16T06:57:14;8.00;;;2.27;;
47529;SDS011;33272;51.922;7.730;2023-05-16T06:59:41;7.03;;;2.97;;
47529;SDS011;33272;51.922;7.730;2023-05-16T07:02:08;9.77;;;2.73;;
47529;SDS011;33272;51.922;7.730;2023-05-16T07:04:35;8.80;;;2.90;;
47529;SDS011;33272;51.922;7.730;2023-05-16T07:07:04;8.80;;;2.13;;
47529;SDS011;33272;51.922;7.730;2023-05-16T07:09:32;7.60;;;2.80;;
47529;SDS011;33272;51.922;7.730;2023-05-16T07:11:59;8.07;;;3.83;;
47529;SDS011;33272;51.922;7.730;2023-05-16T07:14:26;9.60;;;2.40;;
47529;SDS011;33272;51.922;7.730;2023-05-16T07:16:53;8.37;;;2.90;;
47529;SDS011;33272;51.922;7.730;2023-05-16T07:19:20;10.23;;;2.73;;
47529;SDS011;33272;51.922;7.730;2023-05-16T07:21:47;9.57;;;2.77;;
47529;SDS011;33272;51.922;7.730;2023-05-16T07:24:15;8.63;;;2.00;;
47529;SDS011;33272;51.922;7.730;2023-05-16T07:26:42;6.77;;;1.90;;
47529;SDS011;33272;51.922;7.730;2023-05-16T07:29:09;9.73;;;2.40;;
47529;SDS011;33272;51.922;7.730;2023-05-16T07:31:36;4.73;;;1.90;;
47529;SDS011;33272;51.922;7.730;2023-05-16T07:34:03;7.67;;;2.03;;
47529;SDS011;33272;51.922;7.730;2023-05-16T07:36:30;8.47;;;2.63;;
47529;SDS011;33272;51.922;7.730;2023-05-16T07:38:57;8.07;;;2.10;;
47529;SDS011;33272;51.922;7.730;2023-05-16T07:41:26;4.87;;;1.63;;
47529;SDS011;33272;51.922;7.730;2023-05-16T07:43:53;6.07;;;2.20;;
47529;SDS011;33272;51.922;7.730;2023-05-16T07:46:20;7.80;;;1.60;;
47529;SDS011;33272;51.922;7.730;2023-05-16T07:48:47;7.13;;;2.60;;
47529;SDS011;33272;51.922;7.730;2023-05-16T07:51:14;8.77;;;1.93;;
47529;SDS011;33272;51.922;7.730;2023-05-16T07:53:41;10.13;;;2.57;;
47529;SDS011;33272;51.922;7.730;2023-05-16T07:56:07;7.13;;;2.00;;
47529;SDS011;33272;51.922;7.730;2023-05-16T07:58:36;7.17;;;2.27;;
47529;SDS011;33272;51.922;7.730;2023-05-16T08:01:03;4.93;;;1.87;;
47529;SDS011;33272;51.922;7.730;2023-05-16T08:03:30;3.97;;;1.77;;
47529;SDS011;33272;51.922;7.730;2023-05-16T08:05:57;5.33;;;1.60;;
47529;SDS011;33272;51.922;7.730;2023-05-16T08:08:24;6.40;;;1.60;;
47529;SDS011;33272;51.922;7.730;2023-05-16T08:10:51;6.13;;;1.93;;
47529;SDS011;33272;51.922;7.730;2023-05-16T08:13:18;8.30;;;2.10;;
47529;SDS011;33272;51.922;7.730;2023-05-16T08:15:47;4.93;;;1.97;;
47529;SDS011;33272;51.922;7.730;2023-05-16T08:18:14;5.23;;;1.30;;
47529;SDS011;33272;51.922;7.730;2023-05-16T08:20:41;4.87;;;1.53;;
47529;SDS011;33272;51.922;7.730;2023-05-16T08:23:08;4.13;;;1.40;;
47529;SDS011;33272;51.922;7.730;2023-05-16T08:25:35;4.03;;;1.37;;
47529;SDS011;33272;51.922;7.730;2023-05-16T08:28:02;6.93;;;1.60;;
47529;SDS011;33272;51.922;7.730;2023-05-16T08:30:29;5.93;;;1.93;;
47529;SDS011;33272;51.922;7.730;2023-05-16T08:32:58;6.17;;;2.10;;
47529;SDS011;33272;51.922;7.730;2023-05-16T08:35:28;5.83;;;1.90;;
47529;SDS011;33272;51.922;7.730;2023-05-16T08:37:56;5.67;;;2.27;;
47529;SDS011;33272;51.922;7.730;2023-05-16T08:40:24;5.67;;;1.70;;
47529;SDS011;33272;51.922;7.730;2023-05-16T08:42:52;7.03;;;1.70;;
47529;SDS011;33272;51.922;7.730;2023-05-16T08:45:19;6.87;;;1.77;;
47529;SDS011;33272;51.922;7.730;2023-05-16T08:47:47;5.33;;;1.80;;
47529;SDS011;33272;51.922;7.730;2023-05-16T08:50:20;4.30;;;1.50;;
47529;SDS011;33272;51.922;7.730;2023-05-16T08:52:50;3.33;;;1.30;;
47529;SDS011;33272;51.922;7.730;2023-05-16T08:55:19;3.73;;;1.30;;
47529;SDS011;33272;51.922;7.730;2023-05-16T08:57:48;10.00;;;1.67;;
47529;SDS011;33272;51.922;7.730;2023-05-16T09:00:16;5.17;;;1.70;;
47529;SDS011;33272;51.922;7.730;2023-05-16T09:02:44;4.07;;;1.57;;
47529;SDS011;33272;51.922;7.730;2023-05-16T09:05:13;5.13;;;1.97;;
47529;SDS011;33272;51.922;7.730;2023-05-16T09:07:43;7.77;;;2.70;;
47529;SDS011;33272;51.922;7.730;2023-05-16T09:10:11;3.53;;;2.20;;
47529;SDS011;33272;51.922;7.730;2023-05-16T09:12:39;6.83;;;1.80;;
47529;SDS011;33272;51.922;7.730;2023-05-16T09:15:08;9.70;;;1.80;;
47529;SDS011;33272;51.922;7.730;2023-05-16T09:17:36;4.80;;;1.90;;
47529;SDS011;33272;51.922;7.730;2023-05-16T09:20:08;3.50;;;1.27;;
47529;SDS011;33272;51.922;7.730;2023-05-16T09:22:38;6.43;;;1.77;;
47529;SDS011;33272;51.922;7.730;2023-05-16T09:25:07;4.73;;;1.30;;
47529;SDS011;33272;51.922;7.730;2023-05-16T09:27:41;5.67;;;1.90;;
47529;SDS011;33272;51.922;7.730;2023-05-16T09:30:09;7.37;;;1.80;;
47529;SDS011;33272;51.922;7.730;2023-05-16T09:32:41;3.40;;;1.57;;
47529;SDS011;33272;51.922;7.730;2023-05-16T09:35:10;4.47;;;1.50;;
47529;SDS011;33272;51.922;7.730;2023-05-16T09:37:44;5.33;;;2.30;;
47529;SDS011;33272;51.922;7.730;2023-05-16T09:40:13;3.80;;;1.60;;
47529;SDS011;33272;51.922;7.730;2023-05-16T09:42:41;6.03;;;3.07;;
47529;SDS011;33272;51.922;7.730;2023-05-16T09:45:10;5.27;;;1.57;;
47529;SDS011;33272;51.922;7.730;2023-05-16T09:47:39;4.67;;;1.67;;
47529;SDS011;33272;51.922;7.730;2023-05-16T09:50:10;5.57;;;1.70;;
47529;SDS011;33272;51.922;7.730;2023-05-16T09:52:42;5.90;;;1.60;;
47529;SDS011;33272;51.922;7.730;2023-05-16T09:55:09;6.30;;;1.60;;
47529;SDS011;33272;51.922;7.730;2023-05-16T09:57:38;3.03;;;1.50;;
47529;SDS011;33272;51.922;7.730;2023-05-16T10:00:05;3.47;;;1.73;;
47529;SDS011;33272;51.922;7.730;2023-05-16T10:02:36;4.20;;;1.40;;
47529;SDS011;33272;51.922;7.730;2023-05-16T10:05:04;5.33;;;1.57;;
47529;SDS011;33272;51.922;7.730;2023-05-16T10:07:32;2.97;;;1.20;;
47529;SDS011;33272;51.922;7.730;2023-05-16T10:10:00;4.63;;;1.33;;
47529;SDS011;33272;51.922;7.730;2023-05-16T10:12:32;4.90;;;1.30;;
47529;SDS011;33272;51.922;7.730;2023-05-16T10:15:03;5.23;;;1.57;;
47529;SDS011;33272;51.922;7.730;2023-05-16T10:17:32;1.70;;;1.03;;
47529;SDS011;33272;51.922;7.730;2023-05-16T10:20:05;3.47;;;1.20;;
47529;SDS011;33272;51.922;7.730;2023-05-16T10:22:35;4.90;;;1.60;;
47529;SDS011;33272;51.922;7.730;2023-05-16T10:25:08;4.67;;;1.37;;
47529;SDS011;33272;51.922;7.730;2023-05-16T10:27:45;6.33;;;1.30;;
47529;SDS011;33272;51.922;7.730;2023-05-16T10:30:14;2.33;;;0.97;;
47529;SDS011;33272;51.922;7.730;2023-05-16T10:32:41;3.50;;;1.13;;
47529;SDS011;33272;51.922;7.730;2023-05-16T10:35:10;4.43;;;1.33;;
47529;SDS011;33272;51.922;7.730;2023-05-16T10:37:38;3.43;;;1.40;;
47529;SDS011;33272;51.922;7.730;2023-05-16T10:40:06;3.60;;;1.40;;
47529;SDS011;33272;51.922;7.730;2023-05-16T10:42:34;3.63;;;1.23;;
47529;SDS011;33272;51.922;7.730;2023-05-16T10:47:52;3.53;;;1.40;;
47529;SDS011;33272;51.922;7.730;2023-05-16T10:50:35;4.47;;;1.53;;
47529;SDS011;33272;51.922;7.730;2023-05-16T10:53:11;5.67;;;1.17;;
47529;SDS011;33272;51.922;7.730;2023-05-16T10:55:43;3.87;;;1.20;;
47529;SDS011;33272;51.922;7.730;2023-05-16T10:58:17;3.83;;;1.40;;
47529;SDS011;33272;51.922;7.730;2023-05-16T11:00:52;2.03;;;0.97;;
47529;SDS011;33272;51.922;7.730;2023-05-16T11:04:05;2.07;;;1.00;;
47529;SDS011;33272;51.922;7.730;2023-05-16T11:06:43;2.63;;;1.10;;
47529;SDS011;33272;51.922;7.730;2023-05-16T11:09:19;3.97;;;1.00;;
47529;SDS011;33272;51.922;7.730;2023-05-16T11:11:53;4.57;;;1.20;;
47529;SDS011;33272;51.922;7.730;2023-05-16T11:14:28;1.60;;;0.83;;
47529;SDS011;33272;51.922;7.730;2023-05-16T11:17:06;2.17;;;1.00;;
47529;SDS011;33272;51.922;7.730;2023-05-16T11:19:39;2.73;;;1.10;;
47529;SDS011;33272;51.922;7.730;2023-05-16T11:22:09;3.53;;;1.37;;
47529;SDS011;33272;51.922;7.730;2023-05-16T11:24:48;3.57;;;1.30;;
47529;SDS011;33272;51.922;7.730;2023-05-16T11:27:21;1.87;;;0.73;;
47529;SDS011;33272;51.922;7.730;2023-05-16T11:29:51;2.87;;;0.90;;
47529;SDS011;33272;51.922;7.730;2023-05-16T11:32:22;6.27;;;1.70;;
47529;SDS011;33272;51.922;7.730;2023-05-16T11:34:49;4.77;;;1.03;;
47529;SDS011;33272;51.922;7.730;2023-05-16T11:37:18;2.73;;;1.10;;
47529;SDS011;33272;51.922;7.730;2023-05-16T11:39:46;1.43;;;1.20;;
47529;SDS011;33272;51.922;7.730;2023-05-16T11:42:13;2.27;;;1.37;;
47529;SDS011;33272;51.922;7.730;2023-05-16T11:44:42;3.57;;;1.83;;
47529;SDS011;33272;51.922;7.730;2023-05-16T11:47:09;3.87;;;1.20;;
47529;SDS011;33272;51.922;7.730;2023-05-16T11:49:37;1.53;;;1.10;;
47529;SDS011;33272;51.922;7.730;2023-05-16T11:52:06;2.73;;;0.90;;
47529;SDS011;33272;51.922;7.730;2023-05-16T11:54:34;2.40;;;1.07;;
47529;SDS011;33272;51.922;7.730;2023-05-16T11:57:02;3.83;;;1.20;;
47529;SDS011;33272;51.922;7.730;2023-05-16T11:59:30;2.70;;;1.40;;
47529;SDS011;33272;51.922;7.730;2023-05-16T12:01:57;6.20;;;1.40;;
47529;SDS011;33272;51.922;7.730;2023-05-16T12:04:28;3.67;;;2.90;;
47529;SDS011;33272;51.922;7.730;2023-05-16T12:07:00;2.97;;;1.20;;
47529;SDS011;33272;51.922;7.730;2023-05-16T12:09:28;2.80;;;1.20;;
47529;SDS011;33272;51.922;7.730;2023-05-16T12:11:55;3.53;;;1.50;;
47529;SDS011;33272;51.922;7.730;2023-05-16T12:14:22;2.20;;;1.03;;
47529;SDS011;33272;51.922;7.730;2023-05-16T12:16:51;1.97;;;0.93;;
47529;SDS011;33272;51.922;7.730;2023-05-16T12:19:19;1.63;;;1.10;;
47529;SDS011;33272;51.922;7.730;2023-05-16T12:21:46;2.10;;;1.00;;
47529;SDS011;33272;51.922;7.730;2023-05-16T12:24:18;1.87;;;1.30;;
47529;SDS011;33272;51.922;7.730;2023-05-16T12:26:45;3.97;;;1.10;;
47529;SDS011;33272;51.922;7.730;2023-05-16T12:29:12;2.73;;;1.50;;
47529;SDS011;33272;51.922;7.730;2023-05-16T12:31:39;2.27;;;1.07;;
47529;SDS011;33272;51.922;7.730;2023-05-16T12:34:13;2.33;;;1.00;;
47529;SDS011;33272;51.922;7.730;2023-05-16T12:36:42;4.23;;;1.30;;
47529;SDS011;33272;51.922;7.730;2023-05-16T12:39:10;1.40;;;0.80;;
47529;SDS011;33272;51.922;7.730;2023-05-16T12:41:41;2.40;;;1.20;;
47529;SDS011;33272;51.922;7.730;2023-05-16T12:44:11;2.30;;;1.20;;
47529;SDS011;33272;51.922;7.730;2023-05-16T12:46:41;1.33;;;0.90;;
47529;SDS011;33272;51.922;7.730;2023-05-16T12:49:10;2.67;;;1.50;;
47529;SDS011;33272;51.922;7.730;2023-05-16T12:51:37;4.70;;;1.70;;
47529;SDS011;33272;51.922;7.730;2023-05-16T12:54:08;4.83;;;1.50;;
47529;SDS011;33272;51.922;7.730;2023-05-16T12:56:37;4.80;;;1.77;;
47529;SDS011;33272;51.922;7.730;2023-05-16T12:59:06;5.97;;;1.23;;
47529;SDS011;33272;51.922;7.730;2023-05-16T13:01:33;4.10;;;1.30;;
47529;SDS011;33272;51.922;7.730;2023-05-16T13:04:01;2.93;;;1.20;;
47529;SDS011;33272;51.922;7.730;2023-05-16T13:06:28;3.07;;;1.10;;
47529;SDS011;33272;51.922;7.730;2023-05-16T13:08:55;5.33;;;1.50;;
47529;SDS011;33272;51.922;7.730;2023-05-16T13:11:23;5.30;;;1.47;;
47529;SDS011;33272;51.922;7.730;2023-05-16T13:13:50;2.67;;;1.60;;
47529;SDS011;33272;51.922;7.730;2023-05-16T13:16:18;3.27;;;1.47;;
47529;SDS011;33272;51.922;7.730;2023-05-16T13:18:46;5.10;;;1.60;;
47529;SDS011;33272;51.922;7.730;2023-05-16T13:21:14;1.80;;;1.50;;
47529;SDS011;33272;51.922;7.730;2023-05-16T13:23:41;5.67;;;1.50;;
47529;SDS011;33272;51.922;7.730;2023-05-16T13:26:08;2.90;;;1.50;;
47529;SDS011;33272;51.922;7.730;2023-05-16T13:28:35;4.83;;;1.70;;
47529;SDS011;33272;51.922;7.730;2023-05-16T13:31:02;2.10;;;1.10;;
47529;SDS011;33272;51.922;7.730;2023-05-16T13:33:31;4.20;;;1.63;;
47529;SDS011;33272;51.922;7.730;2023-05-16T13:36:00;3.97;;;1.30;;
47529;SDS011;33272;51.922;7.730;2023-05-16T13:38:27;3.87;;;1.27;;
47529;SDS011;33272;51.922;7.730;2023-05-16T13:40:54;2.07;;;1.10;;
47529;SDS011;33272;51.922;7.730;2023-05-16T13:43:21;4.17;;;1.50;;
47529;SDS011;33272;51.922;7.730;2023-05-16T13:45:48;2.53;;;1.40;;
47529;SDS011;33272;51.922;7.730;2023-05-16T13:48:16;1.47;;;1.00;;
47529;SDS011;33272;51.922;7.730;2023-05-16T13:50:44;5.37;;;1.30;;
47529;SDS011;33272;51.922;7.730;2023-05-16T13:53:11;2.17;;;1.00;;
47529;SDS011;33272;51.922;7.730;2023-05-16T13:55:38;2.70;;;1.07;;
47529;SDS011;33272;51.922;7.730;2023-05-16T13:58:05;2.47;;;1.10;;
47529;SDS011;33272;51.922;7.730;2023-05-16T14:00:32;4.13;;;1.20;;
47529;SDS011;33272;51.922;7.730;2023-05-16T14:02:59;2.97;;;1.40;;
47529;SDS011;33272;51.922;7.730;2023-05-16T14:05:26;2.23;;;0.90;;
47529;SDS011;33272;51.922;7.730;2023-05-16T14:07:55;2.97;;;1.10;;
47529;SDS011;33272;51.922;7.730;2023-05-16T14:10:22;3.00;;;1.87;;
47529;SDS011;33272;51.922;7.730;2023-05-16T14:12:50;3.07;;;1.30;;
47529;SDS011;33272;51.922;7.730;2023-05-16T14:15:17;3.43;;;0.97;;
47529;SDS011;33272;51.922;7.730;2023-05-16T14:17:45;3.07;;;1.30;;
47529;SDS011;33272;51.922;7.730;2023-05-16T14:20:11;3.83;;;1.30;;
47529;SDS011;33272;51.922;7.730;2023-05-16T14:22:39;2.77;;;1.07;;
47529;SDS011;33272;51.922;7.730;2023-05-16T14:25:08;4.10;;;1.30;;
47529;SDS011;33272;51.922;7.730;2023-05-16T14:27:35;4.67;;;1.43;;
47529;SDS011;33272;51.922;7.730;2023-05-16T14:30:02;3.37;;;1.40;;
47529;SDS011;33272;51.922;7.730;2023-05-16T14:32:32;2.83;;;1.87;;
47529;SDS011;33272;51.922;7.730;2023-05-16T14:34:59;3.27;;;1.20;;
47529;SDS011;33272;51.922;7.730;2023-05-16T14:37:26;4.03;;;1.40;;
47529;SDS011;33272;51.922;7.730;2023-05-16T14:39:54;4.53;;;1.40;;
47529;SDS011;33272;51.922;7.730;2023-05-16T14:42:22;2.63;;;1.40;;
47529;SDS011;33272;51.922;7.730;2023-05-16T14:44:52;2.63;;;1.50;;
47529;SDS011;33272;51.922;7.730;2023-05-16T14:47:19;2.87;;;1.43;;
47529;SDS011;33272;51.922;7.730;2023-05-16T14:49:47;2.63;;;1.50;;
47529;SDS011;33272;51.922;7.730;2023-05-16T14:52:14;4.73;;;1.40;;
47529;SDS011;33272;51.922;7.730;2023-05-16T14:54:42;3.97;;;1.53;;
47529;SDS011;33272;51.922;7.730;2023-05-16T14:57:09;4.07;;;1.57;;